Terminal Aerodrome Forecast
Issued by NWS

Current Version | Previous Version | Text Only | Print | Product List | Glossary On
Versions: 1 2 3 4 5 6 7 8 9 10 11 12 13 14 15 16 17 18 19 20 21 22 23 24 25 26 27 28
704
FTUS42 KCAE 142057 AAA
TAFOGB
TAF AMD
KOGB 142057Z 1421/1518 23008KT P6SM BKN250
     FM142300 VRB03KT P6SM BKN150
     FM151600 26008KT P6SM BKN150=

USA.gov is the U.S. government's official web portal to all federal, state and local government web resources and services.